sensor_id;sensor_type;location;lat;lon;timestamp;temperature;humidity
17968;DHT22;9109;48.050;11.696;2023-11-21T11:42:26;9.70;99.90
17968;DHT22;9109;48.050;11.696;2023-11-21T11:45:48;9.70;99.90
17968;DHT22;9109;48.050;11.696;2023-11-21T11:49:31;9.80;99.90
17968;DHT22;9109;48.050;11.696;2023-11-21T11:52:42;9.80;99.90
17968;DHT22;9109;48.050;11.696;2023-11-21T11:56:03;9.80;99.90
17968;DHT22;9109;48.050;11.696;2023-11-21T12:03:13;9.80;99.90
17968;DHT22;9109;48.050;11.696;2023-11-21T12:06:17;9.80;99.90
17968;DHT22;9109;48.050;11.696;2023-11-21T12:09:45;9.90;99.90
17968;DHT22;9109;48.050;11.696;2023-11-21T12:13:00;9.90;99.90
17968;DHT22;9109;48.050;11.696;2023-11-21T12:16:08;9.90;99.90
17968;DHT22;9109;48.050;11.696;2023-11-21T12:19:40;10.00;99.90
17968;DHT22;9109;48.050;11.696;2023-11-21T12:22:49;10.00;99.90
17968;DHT22;9109;48.050;11.696;2023-11-21T12:26:01;10.00;99.90
17968;DHT22;9109;48.050;11.696;2023-11-21T12:29:08;9.80;99.90
17968;DHT22;9109;48.050;11.696;2023-11-21T12:32:11;9.80;99.90
17968;DHT22;9109;48.050;11.696;2023-11-21T12:35:19;9.70;99.90
17968;DHT22;9109;48.050;11.696;2023-11-21T12:38:40;9.70;99.90
17968;DHT22;9109;48.050;11.696;2023-11-21T12:41:46;9.80;99.90
17968;DHT22;9109;48.050;11.696;2023-11-21T12:45:20;9.80;99.90
17968;DHT22;9109;48.050;11.696;2023-11-21T12:48:24;9.70;99.90
17968;DHT22;9109;48.050;11.696;2023-11-21T12:51:37;9.70;99.90
17968;DHT22;9109;48.050;11.696;2023-11-21T12:55:00;9.70;99.90
17968;DHT22;9109;48.050;11.696;2023-11-21T12:58:10;9.60;99.90
17968;DHT22;9109;48.050;11.696;2023-11-21T13:01:25;9.70;99.90
17968;DHT22;9109;48.050;11.696;2023-11-21T13:04:38;9.80;99.90
17968;DHT22;9109;48.050;11.696;2023-11-21T13:08:06;9.60;99.90
17968;DHT22;9109;48.050;11.696;2023-11-21T13:11:28;9.60;99.90
17968;DHT22;9109;48.050;11.696;2023-11-21T13:14:36;9.70;99.90
17968;DHT22;9109;48.050;11.696;2023-11-21T13:18:06;9.80;99.90
17968;DHT22;9109;48.050;11.696;2023-11-21T13:21:20;9.80;99.90
17968;DHT22;9109;48.050;11.696;2023-11-21T13:24:46;9.70;99.90
17968;DHT22;9109;48.050;11.696;2023-11-21T13:28:02;9.80;99.90
17968;DHT22;9109;48.050;11.696;2023-11-21T13:31:10;9.80;99.90
17968;DHT22;9109;48.050;11.696;2023-11-21T13:34:27;9.90;99.90
17968;DHT22;9109;48.050;11.696;2023-11-21T13:37:41;9.90;99.90
17968;DHT22;9109;48.050;11.696;2023-11-21T13:40:49;9.70;99.90
17968;DHT22;9109;48.050;11.696;2023-11-21T13:43:58;9.50;99.90
17968;DHT22;9109;48.050;11.696;2023-11-21T13:47:10;9.30;99.90
17968;DHT22;9109;48.050;11.696;2023-11-21T13:50:20;9.10;99.90
17968;DHT22;9109;48.050;11.696;2023-11-21T13:53:25;9.00;99.90
17968;DHT22;9109;48.050;11.696;2023-11-21T13:56:31;8.90;99.90
17968;DHT22;9109;48.050;11.696;2023-11-21T13:59:34;8.90;99.90
17968;DHT22;9109;48.050;11.696;2023-11-21T14:02:45;8.80;99.90
17968;DHT22;9109;48.050;11.696;2023-11-21T14:05:53;8.80;99.90
17968;DHT22;9109;48.050;11.696;2023-11-21T14:09:01;8.80;99.90
17968;DHT22;9109;48.050;11.696;2023-11-21T14:12:15;8.80;99.90
17968;DHT22;9109;48.050;11.696;2023-11-21T14:15:40;8.70;99.90
17968;DHT22;9109;48.050;11.696;2023-11-21T14:19:30;8.70;99.90
17968;DHT22;9109;48.050;11.696;2023-11-21T14:22:34;8.80;99.90
17968;DHT22;9109;48.050;11.696;2023-11-21T14:25:40;8.90;99.90
17968;DHT22;9109;48.050;11.696;2023-11-21T14:28:44;8.90;99.90
17968;DHT22;9109;48.050;11.696;2023-11-21T14:31:46;9.00;99.90
17968;DHT22;9109;48.050;11.696;2023-11-21T14:34:50;9.10;99.90
17968;DHT22;9109;48.050;11.696;2023-11-21T14:38:01;9.10;99.90
17968;DHT22;9109;48.050;11.696;2023-11-21T14:41:06;9.10;99.90
17968;DHT22;9109;48.050;11.696;2023-11-21T14:44:10;9.00;99.90
17968;DHT22;9109;48.050;11.696;2023-11-21T14:47:17;8.90;99.90
17968;DHT22;9109;48.050;11.696;2023-11-21T14:50:26;8.80;99.90
17968;DHT22;9109;48.050;11.696;2023-11-21T14:54:00;8.50;99.90
17968;DHT22;9109;48.050;11.696;2023-11-21T14:57:09;8.20;99.90
17968;DHT22;9109;48.050;11.696;2023-11-21T15:00:22;8.00;99.90
17968;DHT22;9109;48.050;11.696;2023-11-21T15:03:47;7.90;99.90
17968;DHT22;9109;48.050;11.696;2023-11-21T15:06:59;7.70;99.90
17968;DHT22;9109;48.050;11.696;2023-11-21T15:10:00;7.70;99.90
17968;DHT22;9109;48.050;11.696;2023-11-21T15:13:04;7.60;99.90
17968;DHT22;9109;48.050;11.696;2023-11-21T15:16:14;7.60;99.90
17968;DHT22;9109;48.050;11.696;2023-11-21T15:19:21;7.80;99.90
17968;DHT22;9109;48.050;11.696;2023-11-21T15:22:26;7.90;99.90
17968;DHT22;9109;48.050;11.696;2023-11-21T15:25:37;8.00;99.90
17968;DHT22;9109;48.050;11.696;2023-11-21T15:28:39;8.10;99.90
17968;DHT22;9109;48.050;11.696;2023-11-21T15:31:51;8.20;99.90
17968;DHT22;9109;48.050;11.696;2023-11-21T15:35:01;8.20;99.90
17968;DHT22;9109;48.050;11.696;2023-11-21T15:38:07;8.20;99.90
17968;DHT22;9109;48.050;11.696;2023-11-21T15:41:09;8.20;99.90
17968;DHT22;9109;48.050;11.696;2023-11-21T15:44:17;8.20;99.90
17968;DHT22;9109;48.050;11.696;2023-11-21T15:47:22;8.20;99.90
17968;DHT22;9109;48.050;11.696;2023-11-21T15:50:27;8.20;99.90
17968;DHT22;9109;48.050;11.696;2023-11-21T15:53:32;8.00;99.90
17968;DHT22;9109;48.050;11.696;2023-11-21T15:56:39;8.00;99.90
17968;DHT22;9109;48.050;11.696;2023-11-21T15:59:45;8.10;99.90
17968;DHT22;9109;48.050;11.696;2023-11-21T16:02:48;8.10;99.90
17968;DHT22;9109;48.050;11.696;2023-11-21T16:05:55;8.20;99.90
17968;DHT22;9109;48.050;11.696;2023-11-21T16:08:58;8.20;99.90
17968;DHT22;9109;48.050;11.696;2023-11-21T16:12:03;8.30;99.90
17968;DHT22;9109;48.050;11.696;2023-11-21T16:15:07;8.30;99.90
17968;DHT22;9109;48.050;11.696;2023-11-21T16:18:11;8.30;99.90
17968;DHT22;9109;48.050;11.696;2023-11-21T16:21:12;8.40;99.90
17968;DHT22;9109;48.050;11.696;2023-11-21T16:24:15;8.40;99.90
17968;DHT22;9109;48.050;11.696;2023-11-21T16:27:17;8.00;99.90
17968;DHT22;9109;48.050;11.696;2023-11-21T16:30:19;7.90;99.90
17968;DHT22;9109;48.050;11.696;2023-11-21T16:33:25;7.90;99.90
17968;DHT22;9109;48.050;11.696;2023-11-21T16:36:27;7.90;99.90
17968;DHT22;9109;48.050;11.696;2023-11-21T16:39:29;8.00;99.90
17968;DHT22;9109;48.050;11.696;2023-11-21T16:42:31;8.10;99.90
17968;DHT22;9109;48.050;11.696;2023-11-21T16:45:34;8.10;99.90
17968;DHT22;9109;48.050;11.696;2023-11-21T16:48:37;8.10;99.90
17968;DHT22;9109;48.050;11.696;2023-11-21T16:51:39;8.10;99.90
17968;DHT22;9109;48.050;11.696;2023-11-21T16:54:41;8.10;99.90
17968;DHT22;9109;48.050;11.696;2023-11-21T16:57:43;8.20;99.90
17968;DHT22;9109;48.050;11.696;2023-11-21T17:00:46;8.20;99.90
17968;DHT22;9109;48.050;11.696;2023-11-21T17:03:53;8.20;99.90
17968;DHT22;9109;48.050;11.696;2023-11-21T17:06:55;8.30;99.90
17968;DHT22;9109;48.050;11.696;2023-11-21T17:09:57;8.20;99.90
17968;DHT22;9109;48.050;11.696;2023-11-21T17:12:59;8.30;99.90
17968;DHT22;9109;48.050;11.696;2023-11-21T17:16:04;8.20;99.90
17968;DHT22;9109;48.050;11.696;2023-11-21T17:19:09;8.20;99.90
17968;DHT22;9109;48.050;11.696;2023-11-21T17:22:11;8.20;99.90
17968;DHT22;9109;48.050;11.696;2023-11-21T17:25:15;8.30;99.90
17968;DHT22;9109;48.050;11.696;2023-11-21T17:28:18;8.30;99.90
17968;DHT22;9109;48.050;11.696;2023-11-21T17:31:23;8.20;99.90
17968;DHT22;9109;48.050;11.696;2023-11-21T17:34:27;8.20;99.90
17968;DHT22;9109;48.050;11.696;2023-11-21T17:37:32;8.20;99.90
17968;DHT22;9109;48.050;11.696;2023-11-21T17:40:34;8.30;99.90
17968;DHT22;9109;48.050;11.696;2023-11-21T17:43:39;8.30;99.90
17968;DHT22;9109;48.050;11.696;2023-11-21T17:46:43;8.20;99.90
17968;DHT22;9109;48.050;11.696;2023-11-21T17:49:46;8.20;99.90
17968;DHT22;9109;48.050;11.696;2023-11-21T17:52:49;8.10;99.90
17968;DHT22;9109;48.050;11.696;2023-11-21T17:55:51;8.20;99.90
17968;DHT22;9109;48.050;11.696;2023-11-21T17:58:53;8.10;99.90
17968;DHT22;9109;48.050;11.696;2023-11-21T18:01:57;8.10;99.90
17968;DHT22;9109;48.050;11.696;2023-11-21T18:05:00;8.10;99.90
17968;DHT22;9109;48.050;11.696;2023-11-21T18:08:05;8.10;99.90
17968;DHT22;9109;48.050;11.696;2023-11-21T18:11:08;8.20;99.90
17968;DHT22;9109;48.050;11.696;2023-11-21T18:14:09;8.20;99.90
17968;DHT22;9109;48.050;11.696;2023-11-21T18:17:12;8.10;99.90
17968;DHT22;9109;48.050;11.696;2023-11-21T18:20:18;8.10;99.90
17968;DHT22;9109;48.050;11.696;2023-11-21T18:23:20;8.20;99.90
17968;DHT22;9109;48.050;11.696;2023-11-21T18:26:22;8.30;99.90
17968;DHT22;9109;48.050;11.696;2023-11-21T18:29:26;8.40;99.90
17968;DHT22;9109;48.050;11.696;2023-11-21T18:32:28;8.50;99.90
17968;DHT22;9109;48.050;11.696;2023-11-21T18:35:33;8.60;99.90
17968;DHT22;9109;48.050;11.696;2023-11-21T18:38:35;8.60;99.90
17968;DHT22;9109;48.050;11.696;2023-11-21T18:41:37;8.60;99.90
17968;DHT22;9109;48.050;11.696;2023-11-21T18:44:42;8.70;99.90
17968;DHT22;9109;48.050;11.696;2023-11-21T18:47:51;8.70;99.90
17968;DHT22;9109;48.050;11.696;2023-11-21T18:50:59;8.70;99.90
17968;DHT22;9109;48.050;11.696;2023-11-21T18:54:03;8.70;99.90
17968;DHT22;9109;48.050;11.696;2023-11-21T18:57:06;8.70;99.90
17968;DHT22;9109;48.050;11.696;2023-11-21T19:00:13;8.70;99.90
17968;DHT22;9109;48.050;11.696;2023-11-21T19:03:20;8.80;99.90
17968;DHT22;9109;48.050;11.696;2023-11-21T19:06:26;8.70;99.90
17968;DHT22;9109;48.050;11.696;2023-11-21T19:09:36;8.70;99.90
17968;DHT22;9109;48.050;11.696;2023-11-21T19:12:38;8.70;99.90
17968;DHT22;9109;48.050;11.696;2023-11-21T19:15:44;8.80;99.90
17968;DHT22;9109;48.050;11.696;2023-11-21T19:18:45;8.80;99.90
17968;DHT22;9109;48.050;11.696;2023-11-21T19:21:50;8.80;99.90
17968;DHT22;9109;48.050;11.696;2023-11-21T19:24:52;8.70;99.90
17968;DHT22;9109;48.050;11.696;2023-11-21T19:27:54;8.80;99.90
17968;DHT22;9109;48.050;11.696;2023-11-21T19:30:57;8.70;99.90
17968;DHT22;9109;48.050;11.696;2023-11-21T19:34:06;8.60;99.90
17968;DHT22;9109;48.050;11.696;2023-11-21T19:37:10;8.70;99.90
17968;DHT22;9109;48.050;11.696;2023-11-21T19:40:12;8.60;99.90
17968;DHT22;9109;48.050;11.696;2023-11-21T19:43:14;8.60;99.90
17968;DHT22;9109;48.050;11.696;2023-11-21T19:46:16;8.60;99.90
17968;DHT22;9109;48.050;11.696;2023-11-21T19:49:22;8.60;99.90
17968;DHT22;9109;48.050;11.696;2023-11-21T19:52:27;8.60;99.90
17968;DHT22;9109;48.050;11.696;2023-11-21T19:55:33;8.60;99.90
17968;DHT22;9109;48.050;11.696;2023-11-21T19:58:38;8.50;99.90
17968;DHT22;9109;48.050;11.696;2023-11-21T20:01:42;8.50;99.90
17968;DHT22;9109;48.050;11.696;2023-11-21T20:04:44;8.50;99.90
17968;DHT22;9109;48.050;11.696;2023-11-21T20:07:50;8.50;99.90
17968;DHT22;9109;48.050;11.696;2023-11-21T20:10:51;8.50;99.90
17968;DHT22;9109;48.050;11.696;2023-11-21T20:13:57;8.60;99.90
17968;DHT22;9109;48.050;11.696;2023-11-21T20:17:01;8.50;99.90
17968;DHT22;9109;48.050;11.696;2023-11-21T20:20:04;8.50;99.90
17968;DHT22;9109;48.050;11.696;2023-11-21T20:23:07;8.50;99.90
17968;DHT22;9109;48.050;11.696;2023-11-21T20:26:09;8.50;99.90
17968;DHT22;9109;48.050;11.696;2023-11-21T20:29:11;8.50;99.90
17968;DHT22;9109;48.050;11.696;2023-11-21T20:32:15;8.50;99.90
17968;DHT22;9109;48.050;11.696;2023-11-21T20:35:19;8.40;99.90
17968;DHT22;9109;48.050;11.696;2023-11-21T20:38:22;8.50;99.90
17968;DHT22;9109;48.050;11.696;2023-11-21T20:41:25;8.30;99.90
17968;DHT22;9109;48.050;11.696;2023-11-21T20:44:29;8.30;99.90
17968;DHT22;9109;48.050;11.696;2023-11-21T20:47:33;8.20;99.90
17968;DHT22;9109;48.050;11.696;2023-11-21T20:50:36;8.20;99.90
17968;DHT22;9109;48.050;11.696;2023-11-21T20:53:44;8.20;99.90
17968;DHT22;9109;48.050;11.696;2023-11-21T20:56:49;8.20;99.90
17968;DHT22;9109;48.050;11.696;2023-11-21T20:59:55;8.20;99.90
17968;DHT22;9109;48.050;11.696;2023-11-21T21:02:57;8.20;99.90
17968;DHT22;9109;48.050;11.696;2023-11-21T21:05:58;8.10;99.90
17968;DHT22;9109;48.050;11.696;2023-11-21T21:09:02;8.10;99.90
17968;DHT22;9109;48.050;11.696;2023-11-21T21:12:05;8.10;99.90
17968;DHT22;9109;48.050;11.696;2023-11-21T21:15:08;8.10;99.90
17968;DHT22;9109;48.050;11.696;2023-11-21T21:18:12;8.00;99.90
17968;DHT22;9109;48.050;11.696;2023-11-21T21:21:14;8.00;99.90
17968;DHT22;9109;48.050;11.696;2023-11-21T21:24:20;7.90;99.90
17968;DHT22;9109;48.050;11.696;2023-11-21T21:27:22;8.00;99.90
17968;DHT22;9109;48.050;11.696;2023-11-21T21:30:24;8.00;99.90
17968;DHT22;9109;48.050;11.696;2023-11-21T21:33:28;8.00;99.90
17968;DHT22;9109;48.050;11.696;2023-11-21T21:36:30;8.00;99.90
17968;DHT22;9109;48.050;11.696;2023-11-21T21:39:34;8.10;99.90
17968;DHT22;9109;48.050;11.696;2023-11-21T21:42:46;8.00;99.90
17968;DHT22;9109;48.050;11.696;2023-11-21T21:45:48;8.00;99.90
17968;DHT22;9109;48.050;11.696;2023-11-21T21:48:50;8.10;99.90
17968;DHT22;9109;48.050;11.696;2023-11-21T21:51:56;8.10;99.90
17968;DHT22;9109;48.050;11.696;2023-11-21T21:54:59;8.10;99.90
17968;DHT22;9109;48.050;11.696;2023-11-21T21:58:01;8.10;99.90
17968;DHT22;9109;48.050;11.696;2023-11-21T22:01:04;8.10;99.90
17968;DHT22;9109;48.050;11.696;2023-11-21T22:04:06;8.00;99.90
17968;DHT22;9109;48.050;11.696;2023-11-21T22:07:10;8.10;99.90
17968;DHT22;9109;48.050;11.696;2023-11-21T22:10:14;8.10;99.90
17968;DHT22;9109;48.050;11.696;2023-11-21T22:13:16;8.10;99.90
17968;DHT22;9109;48.050;11.696;2023-11-21T22:16:17;8.10;99.90
17968;DHT22;9109;48.050;11.696;2023-11-21T22:19:21;8.00;99.90
17968;DHT22;9109;48.050;11.696;2023-11-21T22:22:23;8.00;99.90
17968;DHT22;9109;48.050;11.696;2023-11-21T22:25:28;8.00;99.90
17968;DHT22;9109;48.050;11.696;2023-11-21T22:28:30;8.00;99.90
17968;DHT22;9109;48.050;11.696;2023-11-21T22:31:39;8.10;99.90
17968;DHT22;9109;48.050;11.696;2023-11-21T22:34:41;8.10;99.90
17968;DHT22;9109;48.050;11.696;2023-11-21T22:37:43;8.10;99.90
17968;DHT22;9109;48.050;11.696;2023-11-21T22:40:46;8.00;99.90
17968;DHT22;9109;48.050;11.696;2023-11-21T22:43:47;8.00;99.90
17968;DHT22;9109;48.050;11.696;2023-11-21T22:46:50;8.00;99.90
17968;DHT22;9109;48.050;11.696;2023-11-21T22:49:52;7.90;99.90
17968;DHT22;9109;48.050;11.696;2023-11-21T22:52:54;7.80;99.90
17968;DHT22;9109;48.050;11.696;2023-11-21T22:55:57;7.80;99.90
17968;DHT22;9109;48.050;11.696;2023-11-21T22:59:01;7.90;99.90
17968;DHT22;9109;48.050;11.696;2023-11-21T23:02:05;7.70;99.90
17968;DHT22;9109;48.050;11.696;2023-11-21T23:05:09;7.60;99.90
17968;DHT22;9109;48.050;11.696;2023-11-21T23:08:11;7.50;99.90
17968;DHT22;9109;48.050;11.696;2023-11-21T23:11:16;7.40;99.90
17968;DHT22;9109;48.050;11.696;2023-11-21T23:14:18;7.50;99.90
17968;DHT22;9109;48.050;11.696;2023-11-21T23:17:20;7.50;99.90
17968;DHT22;9109;48.050;11.696;2023-11-21T23:20:22;7.40;99.90
17968;DHT22;9109;48.050;11.696;2023-11-21T23:23:24;7.40;99.90
17968;DHT22;9109;48.050;11.696;2023-11-21T23:26:29;7.40;99.90
17968;DHT22;9109;48.050;11.696;2023-11-21T23:29:30;7.40;99.90
17968;DHT22;9109;48.050;11.696;2023-11-21T23:32:33;7.50;99.90
17968;DHT22;9109;48.050;11.696;2023-11-21T23:35:35;7.40;99.90
17968;DHT22;9109;48.050;11.696;2023-11-21T23:38:39;7.40;99.90
17968;DHT22;9109;48.050;11.696;2023-11-21T23:41:45;7.40;99.90
17968;DHT22;9109;48.050;11.696;2023-11-21T23:44:47;7.40;99.90
17968;DHT22;9109;48.050;11.696;2023-11-21T23:47:49;7.30;99.90
17968;DHT22;9109;48.050;11.696;2023-11-21T23:50:51;7.40;99.90
17968;DHT22;9109;48.050;11.696;2023-11-21T23:53:54;7.40;99.90
17968;DHT22;9109;48.050;11.696;2023-11-21T23:56:59;7.50;99.90
